createdAt,value
2018-12-18T00:05:36.498Z,8.27
2018-12-18T00:08:10.296Z,6.37
2018-12-18T00:10:50.683Z,7.77
2018-12-18T00:13:24.179Z,8.60
2018-12-18T00:15:56.793Z,7.10
2018-12-18T00:18:29.140Z,6.83
2018-12-18T00:21:01.545Z,6.93
2018-12-18T00:23:33.943Z,8.80
2018-12-18T00:26:05.484Z,7.40
2018-12-18T00:28:36.069Z,6.97
2018-12-18T00:31:08.057Z,6.87
2018-12-18T00:33:46.096Z,8.50
2018-12-18T00:36:19.278Z,6.73
2018-12-18T00:38:53.717Z,6.83
2018-12-18T00:41:28.668Z,7.23
2018-12-18T00:44:02.505Z,7.40
2018-12-18T00:46:35.118Z,7.73
2018-12-18T00:49:10.402Z,7.33
2018-12-18T00:51:41.992Z,6.67
2018-12-18T00:54:12.839Z,7.70
2018-12-18T00:56:44.191Z,7.20
2018-12-18T00:59:15.603Z,8.30
2018-12-18T01:01:53.321Z,7.67
2018-12-18T01:04:25.355Z,7.03
2018-12-18T01:06:59.195Z,7.27
2018-12-18T01:09:32.979Z,7.33
2018-12-18T01:12:03.749Z,7.00
2018-12-18T01:14:38.580Z,6.93
2018-12-18T01:17:10.423Z,7.13
2018-12-18T01:19:42.607Z,6.47
2018-12-18T01:22:16.055Z,7.70
2018-12-18T01:24:48.657Z,7.30
2018-12-18T01:27:21.915Z,8.03
2018-12-18T01:29:53.964Z,6.63
2018-12-18T01:32:26.244Z,7.23
2018-12-18T01:34:58.515Z,7.20
2018-12-18T01:37:30.804Z,6.67
2018-12-18T01:40:02.976Z,7.17
2018-12-18T01:42:40.651Z,7.77
2018-12-18T01:45:11.592Z,6.43
2018-12-18T01:47:44.313Z,6.90
2018-12-18T01:50:15.767Z,7.20
2018-12-18T01:52:46.052Z,6.70
2018-12-18T01:55:18.378Z,6.43
2018-12-18T01:57:51.792Z,7.37
2018-12-18T02:00:22.302Z,7.55
2018-12-18T02:02:55.556Z,6.97
2018-12-18T02:05:25.658Z,5.87
2018-12-18T02:07:57.312Z,6.77
2018-12-18T02:10:29.329Z,6.20
2018-12-18T02:12:59.085Z,6.77
2018-12-18T02:15:29.525Z,8.17
2018-12-18T02:18:00.812Z,7.43
2018-12-18T02:20:33.149Z,6.20
2018-12-18T02:23:03.670Z,6.67
2018-12-18T02:25:35.181Z,6.63
2018-12-18T02:28:05.316Z,5.60
2018-12-18T02:30:38.130Z,6.00
2018-12-18T02:33:13.555Z,6.13
2018-12-18T02:35:47.445Z,5.87
2018-12-18T02:38:18.189Z,6.03
2018-12-18T02:40:49.215Z,6.10
2018-12-18T02:43:24.345Z,6.40
2018-12-18T02:45:57.632Z,7.00
2018-12-18T02:48:30.772Z,5.80
2018-12-18T02:51:02.488Z,6.73
2018-12-18T02:53:32.503Z,5.73
2018-12-18T02:56:05.460Z,5.83
2018-12-18T02:58:37.820Z,6.33
2018-12-18T03:01:09.872Z,6.00
2018-12-18T03:03:41.362Z,5.70
2018-12-18T03:06:14.075Z,5.33
2018-12-18T03:08:47.132Z,5.83
2018-12-18T03:11:22.038Z,5.70
2018-12-18T03:13:55.082Z,6.30
2018-12-18T03:16:26.054Z,6.80
2018-12-18T03:18:55.961Z,6.40
2018-12-18T03:21:26.389Z,6.27
2018-12-18T03:23:57.994Z,6.43
2018-12-18T03:26:31.467Z,6.33
2018-12-18T03:29:02.400Z,6.37
2018-12-18T03:31:35.073Z,5.93
2018-12-18T03:34:06.118Z,6.00
2018-12-18T03:36:38.097Z,6.27
2018-12-18T03:39:08.644Z,7.33
2018-12-18T03:41:38.540Z,6.37
2018-12-18T03:44:08.450Z,6.77
2018-12-18T03:46:40.834Z,6.43
2018-12-18T03:49:13.634Z,6.03
2018-12-18T03:51:47.232Z,6.43
2018-12-18T03:54:20.869Z,6.50
2018-12-18T03:56:53.753Z,6.00
2018-12-18T03:59:26.496Z,6.20
2018-12-18T04:01:57.897Z,6.43
2018-12-18T04:04:28.045Z,7.07
2018-12-18T04:07:01.862Z,7.30
2018-12-18T04:09:36.919Z,6.53
2018-12-18T04:12:14.524Z,6.30
2018-12-18T04:14:49.465Z,6.50
2018-12-18T04:17:20.379Z,6.40
2018-12-18T04:19:55.049Z,6.33
2018-12-18T04:22:27.083Z,6.43
2018-12-18T04:24:57.952Z,6.37
2018-12-18T04:27:31.047Z,7.00
2018-12-18T04:30:06.612Z,6.13
2018-12-18T04:32:39.837Z,5.80
2018-12-18T04:35:14.986Z,6.47
2018-12-18T04:37:46.966Z,5.33
2018-12-18T04:40:23.263Z,6.50
2018-12-18T04:42:55.700Z,5.67
2018-12-18T04:45:25.877Z,5.63
2018-12-18T04:47:55.549Z,5.87
2018-12-18T04:50:26.135Z,5.53
2018-12-18T04:52:56.091Z,5.30
2018-12-18T04:55:25.538Z,6.10
2018-12-18T04:57:55.969Z,5.00
2018-12-18T05:00:25.874Z,6.60
2018-12-18T05:02:55.471Z,5.70
2018-12-18T05:05:25.888Z,5.77
2018-12-18T05:07:55.432Z,6.00
2018-12-18T05:10:25.282Z,6.17
2018-12-18T05:12:55.201Z,6.10
2018-12-18T05:15:24.733Z,5.63
2018-12-18T05:17:54.526Z,6.70
2018-12-18T05:20:24.553Z,5.20
2018-12-18T05:22:54.875Z,5.67
2018-12-18T05:25:25.746Z,5.80
2018-12-18T05:27:56.483Z,5.27
2018-12-18T05:30:26.169Z,6.10
2018-12-18T05:32:57.386Z,5.70
2018-12-18T05:35:31.463Z,6.00
2018-12-18T05:38:03.019Z,5.47
2018-12-18T05:40:35.755Z,7.00
2018-12-18T05:43:05.911Z,7.43
2018-12-18T05:45:35.609Z,5.87
2018-12-18T05:48:05.409Z,6.07
2018-12-18T05:50:35.246Z,5.83
2018-12-18T05:53:05.245Z,5.97
2018-12-18T05:55:35.380Z,5.53
2018-12-18T05:58:05.899Z,6.67
2018-12-18T06:00:35.578Z,6.00
2018-12-18T06:03:05.233Z,6.47
2018-12-18T06:05:35.256Z,6.40
2018-12-18T06:08:07.239Z,6.27
2018-12-18T06:10:38.560Z,6.97
2018-12-18T06:13:08.505Z,6.70
2018-12-18T06:15:38.934Z,5.73
2018-12-18T06:18:09.128Z,6.23
2018-12-18T06:20:39.151Z,6.47
2018-12-18T06:23:09.085Z,6.10
2018-12-18T06:25:39.100Z,7.47
2018-12-18T06:28:09.186Z,6.40
2018-12-18T06:30:38.836Z,6.37
2018-12-18T06:33:08.681Z,6.07
2018-12-18T06:35:38.676Z,6.63
2018-12-18T06:38:08.519Z,6.57
2018-12-18T06:40:38.215Z,7.23
2018-12-18T06:43:08.043Z,6.80
2018-12-18T06:45:39.358Z,6.40
2018-12-18T06:48:09.121Z,6.40
2018-12-18T06:50:38.940Z,7.07
2018-12-18T06:53:08.653Z,7.37
2018-12-18T06:55:38.318Z,7.10
2018-12-18T06:58:08.032Z,7.53
2018-12-18T07:00:38.042Z,7.17
2018-12-18T07:03:07.804Z,7.60
2018-12-18T07:05:37.367Z,9.67
2018-12-18T07:08:07.886Z,7.13
2018-12-18T07:10:37.865Z,8.47
2018-12-18T07:13:07.536Z,9.97
2018-12-18T07:15:37.132Z,7.80
2018-12-18T07:18:06.981Z,8.07
2018-12-18T07:20:36.580Z,8.13
2018-12-18T07:23:07.090Z,7.23
2018-12-18T07:25:37.424Z,8.03
2018-12-18T07:28:07.103Z,9.37
2018-12-18T07:30:36.871Z,7.90
2018-12-18T07:33:06.595Z,7.67
2018-12-18T07:35:36.160Z,7.60
2018-12-18T07:38:07.289Z,7.77
2018-12-18T07:40:37.129Z,8.23
2018-12-18T07:43:06.885Z,8.50
2018-12-18T07:45:37.297Z,9.93
2018-12-18T07:48:07.091Z,9.90
2018-12-18T07:50:37.340Z,8.30
2018-12-18T07:53:08.066Z,10.07
2018-12-18T07:55:37.548Z,8.90
2018-12-18T07:58:07.502Z,8.57
2018-12-18T08:00:37.199Z,9.00
2018-12-18T08:03:06.871Z,9.30
2018-12-18T08:05:36.416Z,8.43
2018-12-18T08:08:06.361Z,8.83
2018-12-18T08:10:36.293Z,9.70
2018-12-18T08:13:05.931Z,8.60
2018-12-18T08:15:35.776Z,8.60
2018-12-18T08:18:05.742Z,8.03
2018-12-18T08:20:35.850Z,9.43
2018-12-18T08:23:05.526Z,8.70
2018-12-18T08:25:35.050Z,8.47
2018-12-18T08:28:05.417Z,8.80
2018-12-18T08:30:35.243Z,8.40
2018-12-18T08:33:04.764Z,10.43
2018-12-18T08:35:36.541Z,9.27
2018-12-18T08:38:06.221Z,9.53
2018-12-18T08:40:35.728Z,9.27
2018-12-18T08:43:05.626Z,9.43
2018-12-18T08:45:35.782Z,8.90
2018-12-18T08:48:06.008Z,9.97
2018-12-18T08:50:36.607Z,8.87
2018-12-18T08:53:06.299Z,7.93
2018-12-18T08:55:36.158Z,9.07
2018-12-18T08:58:06.069Z,8.33
2018-12-18T09:00:36.624Z,11.17
2018-12-18T09:03:13.102Z,8.20
2018-12-18T09:05:43.409Z,8.97
2018-12-18T09:08:13.097Z,9.90
2018-12-18T09:10:42.873Z,8.77
2018-12-18T09:13:12.528Z,8.10
2018-12-18T09:15:47.280Z,8.23
2018-12-18T09:18:17.023Z,7.90
2018-12-18T09:20:47.003Z,8.77
2018-12-18T09:23:16.455Z,8.13
2018-12-18T09:25:46.408Z,9.10
2018-12-18T09:28:16.074Z,8.83
2018-12-18T09:37:34.342Z,8.50
2018-12-18T09:40:04.995Z,7.90
2018-12-18T09:42:40.146Z,8.43
2018-12-18T09:45:10.153Z,8.63
2018-12-18T09:47:41.107Z,8.13
2018-12-18T09:50:11.344Z,8.87
2018-12-18T09:52:41.121Z,9.53
2018-12-18T09:55:10.883Z,8.13
2018-12-18T09:57:45.771Z,8.40
2018-12-18T10:00:16.189Z,8.63
2018-12-18T10:02:45.695Z,8.37
2018-12-18T10:05:15.387Z,8.50
2018-12-18T10:07:45.558Z,7.73
2018-12-18T10:10:15.202Z,7.10
2018-12-18T10:12:49.350Z,7.57
2018-12-18T10:15:19.161Z,7.20
2018-12-18T10:17:48.926Z,8.23
2018-12-18T10:20:18.942Z,7.40
2018-12-18T10:22:49.240Z,8.83
2018-12-18T10:25:18.898Z,7.30
2018-12-18T10:27:48.707Z,7.43
2018-12-18T10:30:18.942Z,6.47
2018-12-18T10:32:49.124Z,6.97
2018-12-18T10:35:22.052Z,6.27
2018-12-18T10:37:52.309Z,5.77
2018-12-18T10:40:22.003Z,6.20
2018-12-18T10:42:51.696Z,6.80
2018-12-18T10:45:22.978Z,6.03
2018-12-18T10:47:52.709Z,7.90
2018-12-18T10:50:22.551Z,5.93
2018-12-18T10:52:52.043Z,6.75
2018-12-18T10:55:21.872Z,7.00
2018-12-18T10:57:51.820Z,6.40
2018-12-18T11:00:27.272Z,6.50
2018-12-18T11:02:57.158Z,6.83
2018-12-18T11:05:27.131Z,5.47
2018-12-18T11:07:57.485Z,5.83
2018-12-18T11:10:27.234Z,5.67
2018-12-18T11:13:02.018Z,6.23
2018-12-18T11:15:31.683Z,6.63
2018-12-18T11:18:01.516Z,5.90
2018-12-18T11:20:31.190Z,5.90
2018-12-18T11:23:01.076Z,7.23
2018-12-18T11:25:31.060Z,6.00
2018-12-18T11:28:00.865Z,6.90
2018-12-18T11:30:31.274Z,5.37
2018-12-18T11:33:00.777Z,7.53
2018-12-18T11:35:31.111Z,5.23
2018-12-18T11:38:01.059Z,7.07
2018-12-18T11:40:30.769Z,6.43
2018-12-18T11:43:00.540Z,7.47
2018-12-18T11:45:30.293Z,6.67
2018-12-18T11:48:01.271Z,6.33
2018-12-18T11:50:31.169Z,8.40
2018-12-18T11:53:01.533Z,6.87
2018-12-18T11:55:31.805Z,6.83
2018-12-18T11:58:02.356Z,8.77
2018-12-18T12:00:32.423Z,7.43
2018-12-18T12:03:01.927Z,8.23
2018-12-18T12:05:31.898Z,8.63
2018-12-18T12:08:01.556Z,8.23
2018-12-18T12:10:31.316Z,8.60
2018-12-18T12:13:01.679Z,7.23
2018-12-18T12:15:31.932Z,7.25
2018-12-18T12:18:02.332Z,7.70
2018-12-18T12:20:31.925Z,6.05
2018-12-18T12:23:02.226Z,5.70
2018-12-18T12:25:31.854Z,6.87
2018-12-18T12:28:06.890Z,9.20
2018-12-18T12:30:36.941Z,5.83
2018-12-18T12:33:06.850Z,5.67
2018-12-18T12:35:37.564Z,5.77
2018-12-18T12:38:07.623Z,6.00
2018-12-18T12:40:37.707Z,6.37
2018-12-18T12:43:07.658Z,8.08
2018-12-18T12:45:38.083Z,6.30
2018-12-18T12:48:11.728Z,8.17
2018-12-18T12:50:41.354Z,5.67
2018-12-18T12:53:11.389Z,6.00
2018-12-18T12:55:40.918Z,6.63
2018-12-18T12:58:12.296Z,6.23
2018-12-18T13:00:42.092Z,8.33
2018-12-18T13:03:14.363Z,4.97
2018-12-18T13:05:44.223Z,4.83
2018-12-18T13:08:14.208Z,5.63
2018-12-18T13:10:43.714Z,4.77
2018-12-18T13:13:13.460Z,6.07
2018-12-18T13:15:44.212Z,5.80
2018-12-18T13:18:14.797Z,5.63
2018-12-18T13:20:44.399Z,5.03
2018-12-18T13:23:14.010Z,5.10
2018-12-18T13:25:43.762Z,6.63
2018-12-18T13:28:13.286Z,4.47
2018-12-18T13:30:44.843Z,4.23
2018-12-18T13:33:15.347Z,6.13
2018-12-18T13:35:45.164Z,5.63
2018-12-18T13:38:15.074Z,6.17
2018-12-18T13:40:47.650Z,6.13
2018-12-18T13:43:18.841Z,10.03
2018-12-18T13:45:49.089Z,7.50
2018-12-18T13:48:21.776Z,6.77
2018-12-18T13:50:52.043Z,6.20
2018-12-18T13:53:21.883Z,6.17
2018-12-18T13:55:53.794Z,8.33
2018-12-18T13:58:26.261Z,7.17
2018-12-18T14:00:56.275Z,6.13
2018-12-18T14:03:26.159Z,6.30
2018-12-18T14:05:55.889Z,6.23
2018-12-18T14:08:25.873Z,5.87
2018-12-18T14:10:55.913Z,5.83
2018-12-18T14:13:25.713Z,5.57
2018-12-18T14:15:56.758Z,5.73
2018-12-18T14:18:27.107Z,7.20
2018-12-18T14:20:57.385Z,5.80
2018-12-18T14:23:27.327Z,6.30
2018-12-18T14:25:57.473Z,5.57
2018-12-18T14:28:27.381Z,4.60
2018-12-18T14:30:58.318Z,4.97
2018-12-18T14:33:28.689Z,5.90
2018-12-18T14:35:58.568Z,4.43
2018-12-18T14:38:28.651Z,5.87
2018-12-18T14:41:00.029Z,5.10
2018-12-18T14:43:30.232Z,4.03
2018-12-18T14:45:59.867Z,5.00
2018-12-18T14:48:29.827Z,4.70
2018-12-18T14:50:59.671Z,3.93
2018-12-18T14:53:30.155Z,4.20
2018-12-18T14:56:01.520Z,5.83
2018-12-18T14:58:31.453Z,3.80
2018-12-18T15:01:01.558Z,4.93
2018-12-18T15:03:32.505Z,5.00
2018-12-18T15:06:04.574Z,4.93
2018-12-18T15:08:34.655Z,5.00
2018-12-18T15:11:18.018Z,4.60
2018-12-18T15:13:48.569Z,4.90
2018-12-18T15:16:18.667Z,5.17
2018-12-18T15:18:48.063Z,4.97
2018-12-18T15:21:17.598Z,5.63
2018-12-18T15:23:47.065Z,5.03
2018-12-18T15:26:16.482Z,5.17
2018-12-18T15:28:46.071Z,7.17
2018-12-18T15:31:15.617Z,4.07
2018-12-18T15:33:45.729Z,4.90
2018-12-18T15:36:15.223Z,5.37
2018-12-18T15:38:44.704Z,7.30
2018-12-18T15:41:14.269Z,7.47
2018-12-18T15:43:44.194Z,9.03
2018-12-18T15:46:13.567Z,6.10
2018-12-18T15:48:43.063Z,6.37
2018-12-18T15:51:12.536Z,4.90
2018-12-18T15:53:41.987Z,5.13
2018-12-18T15:56:11.627Z,5.10
2018-12-18T15:58:41.633Z,5.80
2018-12-18T16:01:11.686Z,5.37
2018-12-18T16:03:41.238Z,5.77
2018-12-18T16:06:10.770Z,7.20
2018-12-18T16:08:41.341Z,5.30
2018-12-18T16:11:10.819Z,6.00
2018-12-18T16:13:40.534Z,5.73
2018-12-18T16:16:10.249Z,6.77
2018-12-18T16:18:39.656Z,7.10
2018-12-18T16:21:09.220Z,8.37
2018-12-18T16:23:38.637Z,6.63
2018-12-18T16:26:08.280Z,9.10
2018-12-18T16:28:37.894Z,7.70
2018-12-18T16:31:07.379Z,8.60
2018-12-18T16:33:36.837Z,8.40
2018-12-18T16:36:06.510Z,6.77
2018-12-18T16:38:35.998Z,7.13
2018-12-18T16:41:05.727Z,6.53
2018-12-18T16:43:35.243Z,9.60
2018-12-18T16:46:04.719Z,8.27
2018-12-18T16:48:34.356Z,8.03
2018-12-18T16:51:03.750Z,7.50
2018-12-18T16:53:33.291Z,8.87
2018-12-18T16:56:02.729Z,8.93
2018-12-18T16:58:32.368Z,8.67
2018-12-18T17:01:01.990Z,7.07
2018-12-18T17:03:31.451Z,9.17
2018-12-18T17:06:01.662Z,8.50
2018-12-18T17:08:32.191Z,7.90
2018-12-18T17:11:01.915Z,10.07
2018-12-18T17:13:31.255Z,7.30
2018-12-18T17:16:00.726Z,8.10
2018-12-18T17:18:31.420Z,8.03
2018-12-18T17:21:01.018Z,8.57
2018-12-18T17:23:30.414Z,7.87
2018-12-18T17:26:00.116Z,7.67
2018-12-18T17:28:29.490Z,8.47
2018-12-18T17:30:59.846Z,8.37
2018-12-18T17:33:29.866Z,9.93
2018-12-18T17:36:00.378Z,8.97
2018-12-18T17:38:30.079Z,8.97
2018-12-18T17:41:00.509Z,8.17
2018-12-18T17:43:30.562Z,8.30
2018-12-18T17:46:00.065Z,8.73
2018-12-18T17:48:30.713Z,9.47
2018-12-18T17:51:00.257Z,10.53
2018-12-18T17:53:30.440Z,9.57
2018-12-18T17:55:59.930Z,10.87
2018-12-18T17:58:29.533Z,11.47
2018-12-18T18:00:59.128Z,9.23
2018-12-18T18:03:28.612Z,10.83
2018-12-18T18:05:58.191Z,9.97
2018-12-18T18:08:27.705Z,10.83
2018-12-18T18:10:57.305Z,10.43
2018-12-18T18:13:26.721Z,10.50
2018-12-18T18:15:56.322Z,11.20
2018-12-18T18:18:25.777Z,9.83
2018-12-18T18:20:55.232Z,10.20
2018-12-18T18:23:24.783Z,10.77
2018-12-18T18:25:54.403Z,10.77
2018-12-18T18:28:23.795Z,10.13
2018-12-18T18:30:53.232Z,11.07
2018-12-18T18:33:22.665Z,10.90
2018-12-18T18:35:52.014Z,11.23
2018-12-18T18:38:21.478Z,9.57
2018-12-18T18:40:51.013Z,11.20
2018-12-18T18:43:21.036Z,10.00
2018-12-18T18:45:50.436Z,10.83
2018-12-18T18:48:20.214Z,10.13
2018-12-18T18:50:50.266Z,10.77
2018-12-18T18:53:19.912Z,11.30
2018-12-18T18:55:49.408Z,10.70
2018-12-18T18:58:19.237Z,10.33
2018-12-18T19:00:48.679Z,10.43
2018-12-18T19:03:18.227Z,10.23
2018-12-18T19:05:47.968Z,12.67
2018-12-18T19:08:17.514Z,9.97
2018-12-18T19:10:46.995Z,12.30
2018-12-18T19:13:16.552Z,11.57
2018-12-18T19:15:46.213Z,11.57
2018-12-18T19:18:15.630Z,10.53
2018-12-18T19:20:45.066Z,10.87
2018-12-18T19:23:14.816Z,11.07
2018-12-18T19:25:44.308Z,12.53
2018-12-18T19:28:13.746Z,10.83
2018-12-18T19:30:43.272Z,13.27
2018-12-18T19:33:13.021Z,11.10
2018-12-18T19:35:43.269Z,12.83
2018-12-18T19:38:12.743Z,12.17
2018-12-18T19:40:42.145Z,13.07
2018-12-18T19:43:12.249Z,12.47
2018-12-18T19:45:41.981Z,15.00
2018-12-18T19:48:11.820Z,16.63
2018-12-18T19:50:42.945Z,12.93
2018-12-18T19:53:13.399Z,12.83
2018-12-18T19:55:42.968Z,11.83
2018-12-18T19:58:13.638Z,16.37
2018-12-18T20:00:43.256Z,15.37
2018-12-18T20:03:12.857Z,11.30
2018-12-18T20:05:42.613Z,15.07
2018-12-18T20:08:12.237Z,12.63
2018-12-18T20:10:43.144Z,14.43
2018-12-18T20:13:12.745Z,14.07
2018-12-18T20:15:42.789Z,14.70
2018-12-18T20:18:12.248Z,13.23
2018-12-18T20:20:41.724Z,13.53
2018-12-18T20:23:11.225Z,14.37
2018-12-18T20:25:40.946Z,16.50
2018-12-18T20:28:10.552Z,16.07
2018-12-18T20:30:40.486Z,17.33
2018-12-18T20:33:10.204Z,18.83
2018-12-18T20:35:40.287Z,17.97
2018-12-18T20:38:16.623Z,19.77
2018-12-18T20:40:41.611Z,16.17
2018-12-18T20:43:11.150Z,16.20
2018-12-18T20:45:40.696Z,19.17
2018-12-18T20:48:10.377Z,17.90
2018-12-18T20:50:40.495Z,18.27
2018-12-18T20:53:10.198Z,16.43
2018-12-18T20:55:39.699Z,16.67
2018-12-18T20:58:09.269Z,19.30
2018-12-18T21:00:38.927Z,17.03
2018-12-18T21:03:09.072Z,16.53
2018-12-18T21:05:38.722Z,15.73
2018-12-18T21:08:08.640Z,16.23
2018-12-18T21:10:38.204Z,17.67
2018-12-18T21:13:13.117Z,15.63
2018-12-18T21:15:42.775Z,16.03
2018-12-18T21:18:12.404Z,16.67
2018-12-18T21:20:42.100Z,17.73
2018-12-18T21:23:11.465Z,15.63
2018-12-18T21:25:40.982Z,19.47
2018-12-18T21:28:10.612Z,16.90
2018-12-18T21:30:40.119Z,17.90
2018-12-18T21:33:09.619Z,15.27
2018-12-18T21:35:39.216Z,16.07
2018-12-18T21:38:08.641Z,15.77
2018-12-18T21:40:38.989Z,16.00
2018-12-18T21:43:08.774Z,16.47
2018-12-18T21:45:38.401Z,15.63
2018-12-18T21:48:07.815Z,14.77
2018-12-18T21:50:37.323Z,15.63
2018-12-18T21:53:06.826Z,15.17
2018-12-18T21:55:36.320Z,15.33
2018-12-18T21:58:05.946Z,15.37
2018-12-18T22:00:35.427Z,15.23
2018-12-18T22:03:05.045Z,15.37
2018-12-18T22:05:34.570Z,13.37
2018-12-18T22:08:04.093Z,14.77
2018-12-18T22:10:33.571Z,15.67
2018-12-18T22:13:03.200Z,17.60
2018-12-18T22:15:32.601Z,15.33
2018-12-18T22:18:02.209Z,14.83
2018-12-18T22:20:31.793Z,14.93
2018-12-18T22:23:01.315Z,13.90
2018-12-18T22:25:30.984Z,16.10
2018-12-18T22:28:00.663Z,14.70
2018-12-18T22:30:30.495Z,15.57
2018-12-18T22:33:00.176Z,15.40
2018-12-18T22:35:29.663Z,15.37
2018-12-18T22:37:59.112Z,16.73
2018-12-18T22:40:28.692Z,15.03
2018-12-18T22:42:58.405Z,14.80
2018-12-18T22:45:28.089Z,15.03
2018-12-18T22:47:57.602Z,14.70
2018-12-18T22:50:27.945Z,16.20
2018-12-18T22:52:58.909Z,15.97
2018-12-18T22:55:28.528Z,17.70
2018-12-18T22:57:58.263Z,16.10
2018-12-18T23:00:32.984Z,17.30
2018-12-18T23:03:02.464Z,19.53
2018-12-18T23:05:32.285Z,17.57
2018-12-18T23:08:01.706Z,22.00
2018-12-18T23:10:31.386Z,21.13
2018-12-18T23:13:00.910Z,19.87
2018-12-18T23:15:30.371Z,17.07
2018-12-18T23:18:01.094Z,20.43
2018-12-18T23:20:30.678Z,17.87
2018-12-18T23:23:00.712Z,18.57
2018-12-18T23:25:30.661Z,19.23
2018-12-18T23:28:00.185Z,17.90
2018-12-18T23:30:29.607Z,21.60
2018-12-18T23:32:59.291Z,17.97
2018-12-18T23:35:29.590Z,25.13
2018-12-18T23:37:59.039Z,17.80
2018-12-18T23:40:28.547Z,17.50
2018-12-18T23:42:58.605Z,18.97
2018-12-18T23:45:28.731Z,16.43
2018-12-18T23:47:58.232Z,16.63
2018-12-18T23:50:28.054Z,14.83
2018-12-18T23:52:57.880Z,15.50
2018-12-18T23:55:27.466Z,15.57
2018-12-18T23:57:56.981Z,16.47
